createdAt,value
2023-03-21T00:01:55.310Z,99290.25
2023-03-21T00:03:57.908Z,99289.75
2023-03-21T00:06:08.480Z,99289.47
2023-03-21T00:08:11.275Z,99285.97
2023-03-21T00:10:18.140Z,99274.31
2023-03-21T00:12:24.164Z,99269.72
2023-03-21T00:14:31.133Z,99282.44
2023-03-21T00:16:35.771Z,99277.84
2023-03-21T00:18:42.475Z,99280.03
2023-03-21T00:20:52.190Z,99271.09
2023-03-21T00:22:54.868Z,99276.00
2023-03-21T00:24:57.471Z,99284.38
2023-03-21T00:27:21.961Z,99273.28
2023-03-21T00:29:22.944Z,99269.78
2023-03-21T00:31:25.601Z,99263.50
2023-03-21T00:33:28.935Z,99267.63
2023-03-21T00:37:54.441Z,99270.84
2023-03-21T00:39:57.043Z,99266.78
2023-03-21T00:41:59.576Z,99265.72
2023-03-21T00:44:02.402Z,99261.66
2023-03-21T00:46:05.169Z,99272.75
2023-03-21T00:48:07.745Z,99260.56
2023-03-21T00:50:12.024Z,99261.09
2023-03-21T00:52:22.143Z,99260.84
2023-03-21T00:54:29.933Z,99256.78
2023-03-21T00:56:32.619Z,99260.03
2023-03-21T00:58:35.315Z,99253.78
2023-03-21T01:00:38.921Z,99259.75
2023-03-21T01:03:14.075Z,99260.84
2023-03-21T01:05:39.670Z,99272.50
2023-03-21T01:07:42.190Z,99260.31
2023-03-21T01:09:44.857Z,99256.78
2023-03-21T01:11:47.951Z,99259.75
2023-03-21T01:13:56.219Z,99255.97
2023-03-21T01:16:03.555Z,99264.09
2023-03-21T01:18:06.081Z,99258.94
2023-03-21T01:20:09.335Z,99249.47
2023-03-21T01:22:12.108Z,99238.91
2023-03-21T01:24:14.596Z,99242.97
2023-03-21T01:26:17.138Z,99247.31
2023-03-21T01:28:19.753Z,99247.06
2023-03-21T01:30:24.135Z,99234.59
2023-03-21T01:32:27.325Z,99235.38
2023-03-21T01:34:30.083Z,99235.69
2023-03-21T01:36:33.074Z,99233.53
2023-03-21T01:38:35.947Z,99237.84
2023-03-21T01:40:39.505Z,99235.38
2023-03-21T01:42:42.029Z,99244.34
2023-03-21T01:45:01.432Z,99225.94
2023-03-21T01:47:13.150Z,99224.03
2023-03-21T01:49:27.861Z,99232.69
2023-03-21T01:51:34.630Z,99224.56
2023-03-21T01:53:39.729Z,99231.63
2023-03-21T01:55:42.349Z,99221.03
2023-03-21T01:58:05.297Z,99226.19
2023-03-21T02:00:12.830Z,99213.47
2023-03-21T02:02:27.353Z,99216.72
2023-03-21T02:04:30.470Z,99219.72
2023-03-21T02:06:43.974Z,99215.63
2023-03-21T02:08:46.938Z,99222.69
2023-03-21T02:10:51.057Z,99215.91
2023-03-21T02:12:56.027Z,99221.59
2023-03-21T02:14:59.123Z,99225.66
2023-03-21T02:17:34.946Z,99215.09
2023-03-21T02:19:57.613Z,99219.44
2023-03-21T02:22:21.162Z,99211.03
2023-03-21T02:25:08.380Z,99214.81
2023-03-21T02:27:24.888Z,99214.00
2023-03-21T02:29:39.096Z,99212.66
2023-03-21T02:31:48.255Z,99218.63
2023-03-21T02:34:09.531Z,99213.75
2023-03-21T02:36:17.758Z,99211.84
2023-03-21T02:38:38.174Z,99206.69
2023-03-21T02:41:13.167Z,99204.28
2023-03-21T02:43:37.300Z,99213.47
2023-03-21T02:45:47.372Z,99202.13
2023-03-21T02:47:53.673Z,99200.75
2023-03-21T02:50:15.172Z,99204.28
2023-03-21T02:52:38.734Z,99196.94
2023-03-21T02:54:48.366Z,99186.94
2023-03-21T02:56:53.790Z,99190.47
2023-03-21T02:58:56.434Z,99191.53
2023-03-21T03:00:58.973Z,99178.28
2023-03-21T03:03:09.632Z,99180.69
2023-03-21T03:05:22.238Z,99184.25
2023-03-21T03:07:33.885Z,99186.09
2023-03-21T03:09:54.254Z,99185.59
2023-03-21T03:12:10.335Z,99180.16
2023-03-21T03:15:00.341Z,99181.78
2023-03-21T03:17:20.850Z,99186.13
2023-03-21T03:19:27.938Z,99190.44
2023-03-21T03:21:49.842Z,99181.22
2023-03-21T03:24:10.288Z,99196.41
2023-03-21T03:26:31.822Z,99175.00
2023-03-21T03:28:41.263Z,99176.91
2023-03-21T03:30:57.483Z,99180.16
2023-03-21T03:33:10.418Z,99176.38
2023-03-21T03:35:17.138Z,99172.59
2023-03-21T03:37:26.447Z,99172.84
2023-03-21T03:39:40.552Z,99170.41
2023-03-21T03:44:14.574Z,99175.56
2023-03-21T03:46:36.328Z,99186.66
2023-03-21T03:48:48.350Z,99171.75
2023-03-21T03:50:58.719Z,99183.13
2023-03-21T03:53:18.842Z,99172.03
2023-03-21T03:55:23.958Z,99181.78
2023-03-21T03:57:27.630Z,99188.00
2023-03-21T03:59:30.347Z,99181.78
2023-03-21T04:01:33.948Z,99185.59
2023-03-21T04:03:48.388Z,99182.88
2023-03-21T04:05:54.216Z,99182.31
2023-03-21T04:07:57.220Z,99180.69
2023-03-21T04:09:59.924Z,99193.44
2023-03-21T04:12:02.418Z,99188.81
2023-03-21T04:14:04.918Z,99192.06
2023-03-21T04:16:08.889Z,99188.56
2023-03-21T04:18:11.790Z,99185.31
2023-03-21T04:20:23.581Z,99180.44
2023-03-21T04:22:33.585Z,99167.97
2023-03-21T04:24:37.621Z,99180.97
2023-03-21T04:26:41.341Z,99178.81
2023-03-21T04:28:43.826Z,99170.13
2023-03-21T04:31:00.376Z,99156.31
2023-03-21T04:33:04.952Z,99140.31
2023-03-21T04:35:09.835Z,99137.06
2023-03-21T04:37:13.686Z,99144.91
2023-03-21T04:39:16.886Z,99144.38
2023-03-21T04:41:20.451Z,99139.75
2023-03-21T04:43:24.160Z,99138.94
2023-03-21T04:45:26.787Z,99147.59
2023-03-21T04:47:29.666Z,99153.00
2023-03-21T04:49:32.445Z,99135.88
2023-03-21T04:51:36.052Z,99138.56
2023-03-21T04:53:39.629Z,99140.44
2023-03-21T04:55:42.156Z,99150.19
2023-03-21T04:57:44.696Z,99144.19
2023-03-21T04:59:47.254Z,99146.06
2023-03-21T05:01:50.214Z,99143.59
2023-03-21T05:03:53.298Z,99138.97
2023-03-21T05:05:56.211Z,99137.09
2023-03-21T05:07:58.761Z,99135.72
2023-03-21T05:10:02.581Z,99126.78
2023-03-21T05:12:05.624Z,99136.25
2023-03-21T05:14:10.134Z,99133.00
2023-03-21T05:16:12.662Z,99129.75
2023-03-21T05:18:15.494Z,99139.47
2023-03-21T05:20:18.037Z,99135.44
2023-03-21T05:22:20.842Z,99129.97
2023-03-21T05:24:23.376Z,99131.63
2023-03-21T05:26:25.932Z,99120.50
2023-03-21T05:28:32.440Z,99119.91
2023-03-21T05:30:35.187Z,99116.09
2023-03-21T05:32:37.993Z,99119.84
2023-03-21T05:34:40.538Z,99121.44
2023-03-21T05:36:43.081Z,99111.31
2023-03-21T05:38:48.448Z,99105.84
2023-03-21T05:40:52.794Z,99100.94
2023-03-21T05:42:55.392Z,99107.13
2023-03-21T05:44:58.108Z,99107.63
2023-03-21T05:47:00.603Z,99105.97
2023-03-21T05:49:03.333Z,99095.31
2023-03-21T05:51:06.313Z,99100.16
2023-03-21T05:53:09.048Z,99104.63
2023-03-21T05:55:11.558Z,99105.44
2023-03-21T05:57:15.235Z,99109.06
2023-03-21T05:59:17.832Z,99105.19
2023-03-21T06:01:20.379Z,99101.22
2023-03-21T06:03:23.008Z,99093.50
2023-03-21T06:05:25.638Z,99089.06
2023-03-21T06:07:28.224Z,99079.69
2023-03-21T06:09:31.156Z,99087.03
2023-03-21T06:11:37.357Z,99092.56
2023-03-21T06:13:39.833Z,99083.03
2023-03-21T06:15:42.496Z,99091.38
2023-03-21T06:17:45.009Z,99080.44
2023-03-21T06:19:47.540Z,99070.88
2023-03-21T06:21:50.672Z,99079.19
2023-03-21T06:23:54.225Z,99071.03
2023-03-21T06:25:56.698Z,99064.28
2023-03-21T06:27:59.220Z,99064.06
2023-03-21T06:30:02.198Z,99053.03
2023-03-21T06:32:05.015Z,99040.13
2023-03-21T06:34:10.905Z,99047.41
2023-03-21T06:36:13.403Z,99050.53
2023-03-21T06:38:15.901Z,99051.00
2023-03-21T06:40:18.486Z,99050.63
2023-03-21T06:42:21.243Z,99039.97
2023-03-21T06:44:24.633Z,99044.63
2023-03-21T06:46:27.307Z,99044.31
2023-03-21T06:48:29.796Z,99045.28
2023-03-21T06:50:32.378Z,99050.78
2023-03-21T06:52:34.872Z,99044.94
2023-03-21T06:54:37.668Z,99051.84
2023-03-21T06:56:40.803Z,99042.69
2023-03-21T06:58:43.440Z,99050.56
2023-03-21T07:00:46.505Z,99046.34
2023-03-21T07:02:51.242Z,99052.91
2023-03-21T07:04:54.147Z,99040.59
2023-03-21T07:06:56.676Z,99036.97
2023-03-21T07:08:59.229Z,99034.75
2023-03-21T07:11:01.719Z,99039.72
2023-03-21T07:13:04.313Z,99037.28
2023-03-21T07:15:07.656Z,99035.56
2023-03-21T07:17:10.196Z,99042.84
2023-03-21T07:19:12.738Z,99032.66
2023-03-21T07:21:15.594Z,99034.16
2023-03-21T07:23:20.584Z,99042.28
2023-03-21T07:25:23.114Z,99031.19
2023-03-21T07:27:25.832Z,99030.47
2023-03-21T07:29:28.337Z,99032.47
2023-03-21T07:31:31.044Z,99019.53
2023-03-21T07:33:34.139Z,99029.75
2023-03-21T07:35:37.686Z,99025.25
2023-03-21T07:37:41.064Z,99015.56
2023-03-21T07:39:43.542Z,99021.81
2023-03-21T07:41:46.141Z,99017.56
2023-03-21T07:43:48.736Z,99018.06
2023-03-21T07:45:51.307Z,99010.59
2023-03-21T07:47:54.753Z,99004.69
2023-03-21T07:49:57.285Z,99004.81
2023-03-21T07:52:00.172Z,98995.50
2023-03-21T07:54:02.928Z,98995.88
2023-03-21T07:56:06.493Z,98997.41
2023-03-21T07:58:09.183Z,98995.50
2023-03-21T08:00:12.784Z,98990.91
2023-03-21T08:02:17.197Z,98984.44
2023-03-21T08:04:20.103Z,98982.84
2023-03-21T08:06:23.179Z,98978.63
2023-03-21T08:08:25.797Z,98981.72
2023-03-21T08:10:28.698Z,98987.19
2023-03-21T08:12:31.230Z,98999.97
2023-03-21T08:14:33.996Z,98993.03
2023-03-21T08:16:36.852Z,98991.41
2023-03-21T08:18:39.427Z,98994.38
2023-03-21T08:20:42.013Z,98987.75
2023-03-21T08:22:44.697Z,98982.97
2023-03-21T08:24:47.203Z,98977.38
2023-03-21T08:26:49.697Z,98956.31
2023-03-21T08:28:52.755Z,98970.81
2023-03-21T08:30:55.420Z,98965.69
2023-03-21T08:33:01.350Z,98974.38
2023-03-21T08:35:10.191Z,98969.34
2023-03-21T08:37:12.740Z,98961.94
2023-03-21T08:39:15.540Z,98954.69
2023-03-21T08:41:19.441Z,98955.16
2023-03-21T08:43:21.911Z,98967.56
2023-03-21T08:45:25.619Z,98970.81
2023-03-21T08:47:28.218Z,98954.25
2023-03-21T08:49:31.156Z,98952.84
2023-03-21T08:51:33.879Z,98949.13
2023-03-21T08:53:36.534Z,98938.19
2023-03-21T08:55:39.630Z,98947.22
2023-03-21T08:57:43.012Z,98944.44
2023-03-21T08:59:45.604Z,98945.25
2023-03-21T09:01:48.179Z,98943.47
2023-03-21T09:03:50.979Z,98937.88
2023-03-21T09:05:54.507Z,98937.53
2023-03-21T09:07:57.814Z,98933.13
2023-03-21T09:10:19.067Z,98940.16
2023-03-21T09:12:22.556Z,98919.25
2023-03-21T09:14:28.722Z,98922.97
2023-03-21T09:16:32.921Z,98925.53
2023-03-21T09:18:49.006Z,98928.63
2023-03-21T09:20:52.129Z,98911.59
2023-03-21T09:22:54.611Z,98919.16
2023-03-21T09:24:57.617Z,98923.19
2023-03-21T09:27:02.160Z,98910.63
2023-03-21T09:29:06.097Z,98921.44
2023-03-21T09:31:11.874Z,98922.88
2023-03-21T09:33:21.316Z,98923.88
2023-03-21T09:35:24.983Z,98922.25
2023-03-21T09:37:27.879Z,98916.00
2023-03-21T09:39:30.571Z,98916.81
2023-03-21T09:41:54.320Z,98910.50
2023-03-21T09:44:21.473Z,98902.91
2023-03-21T09:46:46.161Z,98901.47
2023-03-21T09:48:58.048Z,98905.50
2023-03-21T09:51:01.346Z,98894.72
2023-03-21T09:53:19.410Z,98892.44
2023-03-21T09:55:26.484Z,98896.97
2023-03-21T09:57:43.434Z,98894.84
2023-03-21T09:59:49.933Z,98894.25
2023-03-21T10:01:53.346Z,98895.22
2023-03-21T10:04:11.485Z,98900.53
2023-03-21T10:06:17.127Z,98890.72
2023-03-21T10:08:27.998Z,98894.56
2023-03-21T10:10:41.974Z,98895.06
2023-03-21T10:12:46.878Z,98898.75
2023-03-21T10:14:58.157Z,98894.91
2023-03-21T10:17:22.279Z,98890.53
2023-03-21T10:19:25.358Z,98887.47
2023-03-21T10:21:56.897Z,98874.91
2023-03-21T10:23:54.885Z,98884.25
2023-03-21T10:26:02.892Z,98884.44
2023-03-21T10:28:07.875Z,98887.34
2023-03-21T10:30:24.437Z,98879.97
2023-03-21T10:32:27.435Z,98868.78
2023-03-21T10:34:38.656Z,98868.00
2023-03-21T10:36:41.288Z,98863.31
2023-03-21T10:38:50.675Z,98873.47
2023-03-21T10:40:54.379Z,98858.00
2023-03-21T10:43:15.084Z,98865.41
2023-03-21T10:45:20.220Z,98867.97
2023-03-21T10:47:30.336Z,98859.47
2023-03-21T10:49:40.183Z,98856.41
2023-03-21T10:51:44.389Z,98850.78
2023-03-21T10:54:12.694Z,98841.28
2023-03-21T10:56:15.619Z,98854.13
2023-03-21T10:58:27.462Z,98850.25
2023-03-21T11:00:37.210Z,98836.75
2023-03-21T11:02:40.666Z,98847.69
2023-03-21T11:04:44.918Z,98845.44
2023-03-21T11:06:55.887Z,98844.00
2023-03-21T11:09:09.856Z,98845.59
2023-03-21T11:11:22.419Z,98822.59
2023-03-21T11:13:27.699Z,98814.72
2023-03-21T11:15:56.608Z,98822.44
2023-03-21T11:18:01.033Z,98819.41
2023-03-21T11:20:11.405Z,98812.13
2023-03-21T11:22:14.920Z,98804.59
2023-03-21T11:24:19.047Z,98799.28
2023-03-21T11:26:36.825Z,98807.47
2023-03-21T11:28:41.840Z,98805.56
2023-03-21T11:30:54.277Z,98798.63
2023-03-21T11:33:01.793Z,98805.22
2023-03-21T11:35:14.212Z,98797.50
2023-03-21T11:37:33.591Z,98800.88
2023-03-21T11:39:41.216Z,98794.91
2023-03-21T11:41:48.537Z,98794.47
2023-03-21T11:43:52.990Z,98787.69
2023-03-21T11:46:06.423Z,98786.22
2023-03-21T11:48:14.859Z,98779.34
2023-03-21T11:50:24.296Z,98783.53
2023-03-21T11:52:41.332Z,98781.09
2023-03-21T11:54:58.797Z,98780.31
2023-03-21T11:57:22.748Z,98765.34
2023-03-21T11:59:30.966Z,98769.03
2023-03-21T12:01:44.746Z,98760.66
2023-03-21T12:04:04.468Z,98759.03
2023-03-21T12:06:19.718Z,98758.88
2023-03-21T12:08:39.713Z,98757.94
2023-03-21T12:11:07.128Z,98753.75
2023-03-21T12:13:31.089Z,98753.91
2023-03-21T12:16:11.027Z,98741.03
2023-03-21T12:18:44.233Z,98738.78
2023-03-21T12:20:52.484Z,98742.66
2023-03-21T12:23:03.808Z,98740.38
2023-03-21T12:25:33.062Z,98734.13
2023-03-21T12:27:38.621Z,98733.97
2023-03-21T12:30:04.579Z,98728.31
2023-03-21T12:32:28.099Z,98725.59
2023-03-21T12:34:39.224Z,98724.66
2023-03-21T12:37:26.542Z,98721.75
2023-03-21T12:39:35.635Z,98719.47
2023-03-21T12:41:51.080Z,98707.25
2023-03-21T12:44:14.837Z,98706.78
2023-03-21T12:46:46.593Z,98704.84
2023-03-21T12:48:58.362Z,98700.81
2023-03-21T12:51:04.951Z,98688.63
2023-03-21T12:53:36.514Z,98707.44
2023-03-21T12:55:39.790Z,98700.00
2023-03-21T12:57:57.086Z,98701.47
2023-03-21T13:00:21.978Z,98697.94
2023-03-21T13:02:34.441Z,98689.38
2023-03-21T13:05:00.831Z,98687.00
2023-03-21T13:07:09.772Z,98684.44
2023-03-21T13:09:28.559Z,98689.88
2023-03-21T13:11:38.264Z,98691.19
2023-03-21T13:13:47.594Z,98675.09
2023-03-21T13:16:04.503Z,98687.66
2023-03-21T13:18:09.732Z,98682.19
2023-03-21T13:20:30.976Z,98679.63
2023-03-21T13:22:33.762Z,98678.34
2023-03-21T13:24:48.272Z,98668.66
2023-03-21T13:27:01.586Z,98673.50
2023-03-21T13:29:27.236Z,98675.28
2023-03-21T13:31:33.908Z,98677.03
2023-03-21T13:33:45.911Z,98666.59
2023-03-21T13:36:01.130Z,98660.63
2023-03-21T13:38:13.343Z,98651.63
2023-03-21T13:40:28.348Z,98661.59
2023-03-21T13:42:33.908Z,98666.56
2023-03-21T13:44:49.617Z,98656.94
2023-03-21T13:47:30.965Z,98648.09
2023-03-21T13:49:38.239Z,98643.75
2023-03-21T13:51:46.897Z,98645.69
2023-03-21T13:54:08.911Z,98653.88
2023-03-21T13:56:17.266Z,98651.31
2023-03-21T13:58:48.542Z,98649.53
2023-03-21T14:01:12.568Z,98642.44
2023-03-21T14:03:20.751Z,98646.78
2023-03-21T14:05:26.082Z,98635.69
2023-03-21T14:07:35.183Z,98643.09
2023-03-21T14:09:41.918Z,98634.56
2023-03-21T14:11:46.840Z,98637.94
2023-03-21T14:13:51.726Z,98634.88
2023-03-21T14:16:00.085Z,98627.47
2023-03-21T14:18:15.970Z,98635.81
2023-03-21T14:20:30.768Z,98625.84
2023-03-21T14:22:33.389Z,98621.03
2023-03-21T14:24:35.899Z,98616.19
2023-03-21T14:26:43.663Z,98612.34
2023-03-21T14:28:51.441Z,98619.56
2023-03-21T14:31:00.606Z,98606.88
2023-03-21T14:33:35.620Z,98606.22
2023-03-21T14:35:41.930Z,98600.59
2023-03-21T14:37:46.821Z,98600.72
2023-03-21T14:40:01.546Z,98604.41
2023-03-21T14:42:11.086Z,98604.22
2023-03-21T14:44:25.565Z,98609.97
2023-03-21T14:46:28.149Z,98604.31
2023-03-21T14:48:33.141Z,98598.38
2023-03-21T14:50:48.476Z,98586.97
2023-03-21T14:52:53.479Z,98599.13
2023-03-21T14:54:56.758Z,98590.13
2023-03-21T14:57:05.646Z,98600.53
2023-03-21T14:59:14.573Z,98591.38
2023-03-21T15:01:32.720Z,98592.97
2023-03-21T15:03:36.824Z,98583.19
2023-03-21T15:05:42.349Z,98575.81
2023-03-21T15:07:57.512Z,98583.09
2023-03-21T15:10:04.881Z,98569.22
2023-03-21T15:12:09.556Z,98577.50
2023-03-21T15:14:14.837Z,98592.88
2023-03-21T15:16:18.400Z,98592.88
2023-03-21T15:18:27.426Z,98594.50
2023-03-21T15:20:34.275Z,98583.09
2023-03-21T15:22:40.991Z,98591.75
2023-03-21T15:24:48.033Z,98588.00
2023-03-21T15:26:51.763Z,98593.19
2023-03-21T15:28:59.087Z,98587.22
2023-03-21T15:31:02.222Z,98586.38
2023-03-21T15:33:10.721Z,98588.53
2023-03-21T15:35:22.443Z,98579.84
2023-03-21T15:37:33.284Z,98586.91
2023-03-21T15:39:38.692Z,98575.03
2023-03-21T15:41:43.185Z,98580.03
2023-03-21T15:44:01.298Z,98583.09
2023-03-21T15:46:14.441Z,98579.66
2023-03-21T15:48:21.536Z,98580.78
2023-03-21T15:50:24.132Z,98579.66
2023-03-21T15:52:27.682Z,98577.56
2023-03-21T15:54:40.753Z,98568.38
2023-03-21T15:56:46.228Z,98577.19
2023-03-21T15:58:52.760Z,98593.69
2023-03-21T16:01:04.287Z,98575.25
2023-03-21T16:03:18.924Z,98584.53
2023-03-21T16:05:30.864Z,98599.09
2023-03-21T16:07:35.309Z,98645.63
2023-03-21T16:09:42.801Z,98633.53
2023-03-21T16:12:10.594Z,98617.94
2023-03-21T16:14:13.470Z,98609.38
2023-03-21T16:16:24.909Z,98619.50
2023-03-21T16:18:29.612Z,98636.13
2023-03-21T16:20:35.853Z,98633.72
2023-03-21T16:22:38.394Z,98625.03
2023-03-21T16:24:40.915Z,98631.31
2023-03-21T16:26:47.958Z,98625.38
2023-03-21T16:28:51.002Z,98616.88
2023-03-21T16:30:53.543Z,98605.31
2023-03-21T16:32:57.401Z,98618.75
2023-03-21T16:35:01.343Z,98611.19
2023-03-21T16:37:05.737Z,98609.56
2023-03-21T16:39:28.434Z,98618.53
2023-03-21T16:41:31.413Z,98611.81
2023-03-21T16:43:34.125Z,98602.97
2023-03-21T16:45:37.196Z,98621.69
2023-03-21T16:47:40.398Z,98615.69
2023-03-21T16:49:44.585Z,98617.66
2023-03-21T16:51:47.347Z,98621.53
2023-03-21T16:53:51.825Z,98623.91
2023-03-21T16:55:54.652Z,98622.31
2023-03-21T16:57:57.731Z,98619.91
2023-03-21T17:00:00.984Z,98610.13
2023-03-21T17:02:15.173Z,98612.84
2023-03-21T17:04:18.655Z,98611.84
2023-03-21T17:06:24.669Z,98611.34
2023-03-21T17:08:29.266Z,98617.91
2023-03-21T17:10:32.949Z,98614.69
2023-03-21T17:12:35.584Z,98611.97
2023-03-21T17:14:38.085Z,98609.25
2023-03-21T17:16:43.086Z,98592.31
2023-03-21T17:18:45.892Z,98609.16
2023-03-21T17:20:48.381Z,98607.34
2023-03-21T17:22:51.697Z,98604.13
2023-03-21T17:24:54.215Z,98609.06
2023-03-21T17:26:57.492Z,98608.28
2023-03-21T17:29:00.667Z,98610.88
2023-03-21T17:31:03.433Z,98609.50
2023-03-21T17:33:06.482Z,98606.16
2023-03-21T17:35:09.316Z,98596.06
2023-03-21T17:37:12.754Z,98604.91
2023-03-21T17:39:24.677Z,98595.81
2023-03-21T17:41:27.740Z,98615.88
2023-03-21T17:43:30.490Z,98607.56
2023-03-21T17:45:33.047Z,98609.06
2023-03-21T17:47:35.738Z,98606.53
2023-03-21T17:49:38.330Z,98608.03
2023-03-21T17:51:41.752Z,98601.66
2023-03-21T17:53:45.480Z,98606.16
2023-03-21T17:55:48.001Z,98611.47
2023-03-21T17:57:50.486Z,98604.31
2023-03-21T17:59:53.198Z,98604.31
2023-03-21T18:01:55.713Z,98607.03
2023-03-21T18:04:02.358Z,98602.38
2023-03-21T18:06:06.116Z,98604.59
2023-03-21T18:08:12.537Z,98601.28
2023-03-21T18:10:18.470Z,98604.00
2023-03-21T18:12:21.933Z,98594.22
2023-03-21T18:14:28.494Z,98592.28
2023-03-21T18:16:31.717Z,98604.59
2023-03-21T18:18:35.251Z,98590.50
2023-03-21T18:20:54.612Z,98591.31
2023-03-21T18:22:58.324Z,98593.84
2023-03-21T18:25:01.025Z,98591.13
2023-03-21T18:27:04.333Z,98589.53
2023-03-21T18:30:13.261Z,98588.88
2023-03-21T18:31:29.933Z,98588.09
2023-03-21T18:33:33.760Z,98583.44
2023-03-21T18:35:36.606Z,98585.16
2023-03-21T18:37:39.793Z,98584.88
2023-03-21T18:39:44.557Z,98574.09
2023-03-21T18:41:48.238Z,98577.00
2023-03-21T18:44:09.048Z,98580.34
2023-03-21T18:46:13.951Z,98579.56
2023-03-21T18:48:16.710Z,98582.88
2023-03-21T18:50:20.623Z,98587.22
2023-03-21T18:52:23.671Z,98584.50
2023-03-21T18:54:26.587Z,98572.31
2023-03-21T18:58:51.866Z,98583.72
2023-03-21T19:00:54.717Z,98580.16
2023-03-21T19:03:13.893Z,98578.25
2023-03-21T19:05:22.826Z,98579.06
2023-03-21T19:07:25.442Z,98570.38
2023-03-21T19:09:31.632Z,98567.16
2023-03-21T19:11:34.934Z,98568.59
2023-03-21T19:13:37.530Z,98564.56
2023-03-21T19:15:41.345Z,98571.88
2023-03-21T19:20:08.584Z,98578.75
2023-03-21T19:22:11.632Z,98568.78
2023-03-21T19:24:27.588Z,98565.94
2023-03-21T19:26:32.618Z,98565.44
2023-03-21T19:28:36.790Z,98578.53
2023-03-21T19:30:40.180Z,98571.50
2023-03-21T19:32:44.938Z,98566.69
2023-03-21T19:34:47.430Z,98578.88
2023-03-21T19:36:52.088Z,98575.66
2023-03-21T19:38:55.116Z,98574.03
2023-03-21T19:41:01.799Z,98586.22
2023-03-21T19:43:29.799Z,98581.22
2023-03-21T19:45:30.042Z,98575.56
2023-03-21T19:47:32.913Z,98588.69
2023-03-21T19:50:10.113Z,98588.81
2023-03-21T19:51:58.694Z,98585.41
2023-03-21T19:54:04.583Z,98584.41
2023-03-21T19:56:19.703Z,98606.28
2023-03-21T19:58:24.279Z,98585.97
2023-03-21T20:00:26.776Z,98589.50
2023-03-21T20:02:36.522Z,98583.03
2023-03-21T20:04:42.125Z,98581.75
2023-03-21T20:06:45.333Z,98566.34
2023-03-21T20:09:27.642Z,98586.00
2023-03-21T20:11:10.638Z,98578.53
2023-03-21T20:13:13.188Z,98579.75
2023-03-21T20:15:19.428Z,98577.16
2023-03-21T20:17:23.906Z,98573.22
2023-03-21T20:19:27.361Z,98574.94
2023-03-21T20:21:36.920Z,98582.69
2023-03-21T20:23:49.418Z,98589.63
2023-03-21T20:25:52.374Z,98572.41
2023-03-21T20:28:12.851Z,98573.41
2023-03-21T20:30:19.172Z,98576.13
2023-03-21T20:32:21.710Z,98572.09
2023-03-21T20:34:24.391Z,98577.84
2023-03-21T20:36:43.751Z,98579.56
2023-03-21T20:38:46.927Z,98571.97
2023-03-21T20:40:49.621Z,98581.53
2023-03-21T20:42:52.150Z,98572.06
2023-03-21T20:44:59.392Z,98563.72
2023-03-21T20:47:05.613Z,98558.97
2023-03-21T20:49:08.161Z,98567.34
2023-03-21T20:53:36.030Z,98565.53
2023-03-21T20:55:39.757Z,98555.75
2023-03-21T20:57:42.392Z,98553.03
2023-03-21T20:59:45.840Z,98553.53
2023-03-21T21:01:48.478Z,98551.94
2023-03-21T21:03:51.805Z,98540.34
2023-03-21T21:05:54.322Z,98548.13
2023-03-21T21:07:56.875Z,98549.75
2023-03-21T21:09:59.421Z,98546.22
2023-03-21T21:12:09.687Z,98551.94
2023-03-21T21:14:12.400Z,98554.38
2023-03-21T21:16:15.566Z,98553.53
2023-03-21T21:18:18.466Z,98571.47
2023-03-21T21:20:21.094Z,98565.53
2023-03-21T21:22:23.759Z,98555.75
2023-03-21T21:24:26.349Z,98549.00
2023-03-21T21:26:28.888Z,98563.91
2023-03-21T21:28:32.036Z,98553.34
2023-03-21T21:30:38.325Z,98549.09
2023-03-21T21:32:42.187Z,98547.28
2023-03-21T21:34:44.690Z,98566.09
2023-03-21T21:36:47.564Z,98564.47
2023-03-21T21:38:50.322Z,98571.31
2023-03-21T21:40:53.723Z,98566.47
2023-03-21T21:42:56.484Z,98563.53
2023-03-21T21:44:58.998Z,98556.22
2023-03-21T21:47:04.298Z,98581.53
2023-03-21T21:49:06.840Z,98567.44
2023-03-21T21:51:09.728Z,98581.41
2023-03-21T21:53:12.276Z,98569.75
2023-03-21T21:55:18.060Z,98586.03
2023-03-21T21:57:20.579Z,98576.56
2023-03-21T21:59:24.572Z,98567.09
2023-03-21T22:01:29.884Z,98582.00
2023-03-21T22:03:41.245Z,98575.81
2023-03-21T22:05:44.616Z,98562.06
2023-03-21T22:07:48.304Z,98568.78
2023-03-21T22:09:51.146Z,98566.44
2023-03-21T22:11:53.829Z,98565.34
2023-03-21T22:13:56.390Z,98557.19
2023-03-21T22:15:59.009Z,98567.53
2023-03-21T22:18:01.701Z,98572.47
2023-03-21T22:20:09.726Z,98569.34
2023-03-21T22:22:12.237Z,98562.88
2023-03-21T22:24:14.716Z,98548.88
2023-03-21T22:26:17.268Z,98554.06
2023-03-21T22:28:22.243Z,98552.84
2023-03-21T22:30:24.876Z,98550.41
2023-03-21T22:32:27.497Z,98542.06
2023-03-21T22:34:30.097Z,98552.69
2023-03-21T22:36:32.506Z,98554.66
2023-03-21T22:38:35.061Z,98544.69
2023-03-21T22:40:38.069Z,98553.09
2023-03-21T22:42:41.919Z,98537.00
2023-03-21T22:44:44.452Z,98548.34
2023-03-21T22:46:46.948Z,98552.97
2023-03-21T22:48:49.428Z,98548.13
2023-03-21T22:50:52.117Z,98558.16
2023-03-21T22:52:54.678Z,98544.88
2023-03-21T22:54:57.184Z,98552.44
2023-03-21T22:57:00.139Z,98560.88
2023-03-21T22:59:03.084Z,98548.91
2023-03-21T23:01:05.952Z,98546.72
2023-03-21T23:03:08.627Z,98552.16
2023-03-21T23:05:11.830Z,98558.09
2023-03-21T23:07:14.653Z,98547.03
2023-03-21T23:09:17.757Z,98550.31
2023-03-21T23:11:20.381Z,98544.09
2023-03-21T23:13:26.731Z,98545.47
2023-03-21T23:15:29.353Z,98544.97
2023-03-21T23:17:33.908Z,98546.34
2023-03-21T23:19:36.461Z,98551.03
2023-03-21T23:21:39.547Z,98546.69
2023-03-21T23:23:49.951Z,98548.09
2023-03-21T23:25:53.352Z,98545.16
2023-03-21T23:27:56.099Z,98541.13
2023-03-21T23:29:58.659Z,98533.28
2023-03-21T23:32:01.096Z,98542.00
2023-03-21T23:34:04.240Z,98526.81
2023-03-21T23:36:07.348Z,98531.44
2023-03-21T23:38:09.806Z,98523.59
2023-03-21T23:40:12.866Z,98521.19
2023-03-21T23:42:15.354Z,98519.28
2023-03-21T23:44:17.909Z,98530.72
2023-03-21T23:46:20.719Z,98517.72
2023-03-21T23:48:23.380Z,98522.34
2023-03-21T23:50:25.991Z,98519.91
2023-03-21T23:52:28.523Z,98520.22
2023-03-21T23:54:31.032Z,98522.41
2023-03-21T23:56:33.598Z,98517.56
2023-03-21T23:58:36.344Z,98514.88
